Terminal Aerodrome Forecast
Issued by NWS Cleveland, OH

Home | Current Version | Previous Version | Graphics & Text | Print | Product List | Glossary Off
Versions: 1 2 3 4 5 6 7 8 9 10 11 12 13 14 15 16 17 18 19 20 21

000
FTUS41 KCLE 291134
TAFCLE
TAF
KCLE 291134Z 2912/3018 17006KT P6SM SCT100 BKN250
     FM291800 21010KT P6SM SCT040 BKN250
     FM292300 24008KT P6SM VCTS SCT050CB BKN250
     FM300200 26006KT P6SM BKN250
     FM301400 26012KT P6SM SCT250=

USA.gov is the U.S. government's official web portal to all federal, state and local government web resources and services.